createdAt,value
2022-09-13T00:01:34.260Z,3.30
2022-09-13T00:04:02.543Z,5.10
2022-09-13T00:06:30.575Z,2.17
2022-09-13T00:08:58.896Z,2.88
2022-09-13T00:11:30.385Z,4.13
2022-09-13T00:13:59.602Z,3.10
2022-09-13T00:16:30.582Z,4.10
2022-09-13T00:19:00.277Z,3.42
2022-09-13T00:21:29.717Z,3.30
2022-09-13T00:24:00.778Z,4.45
2022-09-13T00:26:30.013Z,3.35
2022-09-13T00:28:59.969Z,2.95
2022-09-13T00:34:00.947Z,3.97
2022-09-13T00:36:29.856Z,3.05
2022-09-13T00:38:59.492Z,3.78
2022-09-13T00:41:28.062Z,3.97
2022-09-13T00:44:03.239Z,3.53
2022-09-13T00:47:01.813Z,4.63
2022-09-13T00:49:50.539Z,5.70
2022-09-13T00:52:21.475Z,5.18
2022-09-13T00:54:57.048Z,2.22
2022-09-13T00:57:27.193Z,2.47
2022-09-13T01:00:12.309Z,3.08
2022-09-13T01:02:48.638Z,4.07
2022-09-13T01:05:19.732Z,5.65
2022-09-13T01:07:48.589Z,2.60
2022-09-13T01:10:17.068Z,3.33
2022-09-13T01:13:11.733Z,2.88
2022-09-13T01:15:40.466Z,4.25
2022-09-13T01:18:10.000Z,2.30
2022-09-13T01:20:46.965Z,3.97
2022-09-13T01:23:21.176Z,2.63
2022-09-13T01:25:58.179Z,4.97
2022-09-13T01:29:00.298Z,3.83
2022-09-13T01:32:15.513Z,3.53
2022-09-13T01:37:48.409Z,4.47
2022-09-13T01:40:51.935Z,5.88
2022-09-13T01:43:44.058Z,5.25
2022-09-13T01:46:54.666Z,5.55
2022-09-13T01:50:06.554Z,4.30
2022-09-13T01:52:55.180Z,5.55
2022-09-13T01:55:42.498Z,3.65
2022-09-13T01:58:22.226Z,5.10
2022-09-13T02:01:18.867Z,3.90
2022-09-13T02:03:58.082Z,4.65
2022-09-13T02:06:35.317Z,4.10
2022-09-13T02:09:12.463Z,4.32
2022-09-13T02:11:46.023Z,9.93
2022-09-13T02:14:24.057Z,8.55
2022-09-13T02:17:02.853Z,6.18
2022-09-13T02:19:54.361Z,10.32
2022-09-13T02:22:32.703Z,8.93
2022-09-13T02:25:17.089Z,8.00
2022-09-13T02:27:49.191Z,6.22
2022-09-13T02:30:18.284Z,8.80
2022-09-13T02:32:59.444Z,7.60
2022-09-13T02:35:32.209Z,10.23
2022-09-13T02:38:09.248Z,13.90
2022-09-13T02:40:44.184Z,12.80
2022-09-13T02:43:22.129Z,10.10
2022-09-13T02:46:13.519Z,35.78
2022-09-13T02:49:07.127Z,26.05
2022-09-13T02:51:48.336Z,13.10
2022-09-13T02:54:24.508Z,6.05
2022-09-13T02:56:57.350Z,3.65
2022-09-13T02:59:26.396Z,6.15
2022-09-13T03:02:08.270Z,4.90
2022-09-13T03:04:36.782Z,2.55
2022-09-13T03:07:08.600Z,6.25
2022-09-13T03:09:36.887Z,7.32
2022-09-13T03:12:35.822Z,6.32
2022-09-13T03:18:31.908Z,4.43
2022-09-13T03:21:29.007Z,5.55
2022-09-13T03:24:26.890Z,3.67
2022-09-13T03:27:25.636Z,3.83
2022-09-13T03:30:05.835Z,3.42
2022-09-13T03:33:03.316Z,6.82
2022-09-13T03:36:02.563Z,3.08
2022-09-13T03:39:14.374Z,3.70
2022-09-13T03:41:49.182Z,4.53
2022-09-13T03:44:22.206Z,2.90
2022-09-13T03:46:55.457Z,5.85
2022-09-13T03:49:26.456Z,4.72
2022-09-13T03:51:55.873Z,2.28
2022-09-13T03:54:27.915Z,3.00
2022-09-13T03:57:20.020Z,2.67
2022-09-13T03:59:54.649Z,2.90
2022-09-13T04:02:26.366Z,3.13
2022-09-13T04:04:54.511Z,7.72
2022-09-13T04:07:24.857Z,4.07
2022-09-13T04:09:53.096Z,5.60
2022-09-13T04:12:21.057Z,3.38
2022-09-13T04:14:49.612Z,4.97
2022-09-13T04:17:20.037Z,3.70
2022-09-13T04:19:48.053Z,7.28
2022-09-13T04:22:16.498Z,8.85
2022-09-13T04:24:45.324Z,3.70
2022-09-13T04:27:14.079Z,11.85
2022-09-13T04:29:42.100Z,3.28
2022-09-13T04:32:11.584Z,3.05
2022-09-13T04:34:39.795Z,4.32
2022-09-13T04:37:07.748Z,4.35
2022-09-13T04:39:37.016Z,5.45
2022-09-13T04:42:05.556Z,3.80
2022-09-13T04:44:34.275Z,3.20
2022-09-13T04:47:05.158Z,1.90
2022-09-13T04:49:33.117Z,1.73
2022-09-13T04:52:01.105Z,3.67
2022-09-13T04:54:29.217Z,4.80
2022-09-13T04:56:57.158Z,2.28
2022-09-13T04:59:25.159Z,3.63
2022-09-13T05:01:54.335Z,4.68
2022-09-13T05:04:22.268Z,2.83
2022-09-13T05:06:50.268Z,3.72
2022-09-13T05:09:19.396Z,4.63
2022-09-13T05:11:47.443Z,4.33
2022-09-13T05:14:15.852Z,2.42
2022-09-13T05:16:45.188Z,2.65
2022-09-13T05:19:13.975Z,1.20
2022-09-13T05:21:41.879Z,1.25
2022-09-13T05:24:10.359Z,0.73
2022-09-13T05:26:56.438Z,0.65
2022-09-13T05:29:25.428Z,1.98
2022-09-13T05:31:53.700Z,1.48
2022-09-13T05:34:21.702Z,1.50
2022-09-13T05:36:54.187Z,1.95
2022-09-13T05:39:33.838Z,1.88
2022-09-13T05:42:09.103Z,2.65
2022-09-13T05:44:37.063Z,1.83
2022-09-13T05:47:05.129Z,0.95
2022-09-13T05:49:33.310Z,0.60
2022-09-13T05:52:01.225Z,1.48
2022-09-13T05:54:29.342Z,0.20
2022-09-13T05:56:59.906Z,0.90
2022-09-13T05:59:27.883Z,0.40
2022-09-13T06:01:56.004Z,0.40
2022-09-13T06:04:25.274Z,0.30
2022-09-13T06:06:53.234Z,0.75
2022-09-13T06:09:21.155Z,0.40
2022-09-13T06:11:50.826Z,1.75
2022-09-13T06:14:19.265Z,3.47
2022-09-13T06:16:48.298Z,0.82
2022-09-13T06:19:16.575Z,1.10
2022-09-13T06:21:44.889Z,2.20
2022-09-13T06:24:12.887Z,1.00
2022-09-13T06:26:41.150Z,1.08
2022-09-13T06:29:13.687Z,2.17
2022-09-13T06:31:45.791Z,0.75
2022-09-13T06:34:19.916Z,0.60
2022-09-13T06:36:47.902Z,0.88
2022-09-13T06:39:15.745Z,1.25
2022-09-13T06:41:43.853Z,1.10
2022-09-13T06:44:11.839Z,0.60
2022-09-13T06:46:39.798Z,1.10
2022-09-13T06:49:10.418Z,0.73
2022-09-13T06:51:38.517Z,2.45
2022-09-13T06:54:06.726Z,1.15
2022-09-13T06:56:40.160Z,1.17
2022-09-13T06:59:11.102Z,0.68
2022-09-13T07:01:44.383Z,0.75
2022-09-13T07:04:17.884Z,0.60
2022-09-13T07:06:55.788Z,1.27
2022-09-13T07:09:23.743Z,1.25
2022-09-13T07:11:54.233Z,2.60
2022-09-13T07:14:27.747Z,2.78
2022-09-13T07:16:56.593Z,1.02
2022-09-13T07:19:29.664Z,0.70
2022-09-13T07:21:59.685Z,0.43
2022-09-13T07:24:27.803Z,0.73
2022-09-13T07:26:55.792Z,1.27
2022-09-13T07:29:29.697Z,0.95
2022-09-13T07:31:59.111Z,0.43
2022-09-13T07:34:28.074Z,1.27
2022-09-13T07:36:56.319Z,0.75
2022-09-13T07:39:24.856Z,1.10
2022-09-13T07:41:54.321Z,0.57
2022-09-13T07:44:25.303Z,1.85
2022-09-13T07:46:53.315Z,5.00
2022-09-13T07:49:21.464Z,3.35
2022-09-13T07:51:52.147Z,0.98
2022-09-13T07:54:21.181Z,0.80
2022-09-13T07:56:50.893Z,0.33
2022-09-13T07:59:20.297Z,0.80
2022-09-13T08:01:51.366Z,3.45
2022-09-13T08:04:22.583Z,2.65
2022-09-13T08:06:50.587Z,0.63
2022-09-13T08:09:18.726Z,0.98
2022-09-13T08:11:57.860Z,2.15
2022-09-13T08:14:25.791Z,1.25
2022-09-13T08:16:57.571Z,0.82
2022-09-13T08:19:25.877Z,0.65
2022-09-13T08:21:53.863Z,1.88
2022-09-13T08:24:22.984Z,4.03
2022-09-13T08:26:54.461Z,4.55
2022-09-13T08:29:22.421Z,4.18
2022-09-13T08:31:50.336Z,9.50
2022-09-13T08:34:19.653Z,5.55
2022-09-13T08:36:47.718Z,1.83
2022-09-13T08:39:15.773Z,3.30
2022-09-13T08:41:53.408Z,2.47
2022-09-13T08:44:30.741Z,1.25
2022-09-13T08:47:15.166Z,0.35
2022-09-13T08:49:50.131Z,0.63
2022-09-13T08:52:33.813Z,6.63
2022-09-13T08:55:16.335Z,0.60
2022-09-13T08:57:56.382Z,1.83
2022-09-13T09:00:42.022Z,1.83
2022-09-13T09:03:36.504Z,0.65
2022-09-13T09:06:04.518Z,0.60
2022-09-13T09:08:42.608Z,1.48
2022-09-13T09:11:32.093Z,0.82
2022-09-13T09:14:31.607Z,0.75
2022-09-13T09:17:08.589Z,1.45
2022-09-13T09:19:44.810Z,3.42
2022-09-13T09:22:19.031Z,1.13
2022-09-13T09:24:51.778Z,1.30
2022-09-13T09:27:20.847Z,0.65
2022-09-13T09:29:55.615Z,2.33
2022-09-13T09:32:38.604Z,2.08
2022-09-13T09:35:30.765Z,0.93
2022-09-13T09:38:26.590Z,1.77
2022-09-13T09:40:54.603Z,1.05
2022-09-13T09:43:53.714Z,1.80
2022-09-13T09:46:27.531Z,3.45
2022-09-13T09:49:03.060Z,2.28
2022-09-13T09:51:31.999Z,0.88
2022-09-13T09:54:05.808Z,1.00
2022-09-13T09:56:37.221Z,0.90
2022-09-13T09:59:05.199Z,0.65
2022-09-13T10:01:38.100Z,0.75
2022-09-13T10:04:20.820Z,1.75
2022-09-13T10:06:50.647Z,1.17
2022-09-13T10:11:55.503Z,2.72
2022-09-13T10:14:35.339Z,1.80
2022-09-13T10:17:22.989Z,1.77
2022-09-13T10:19:59.129Z,2.60
2022-09-13T10:22:28.545Z,1.55
2022-09-13T10:25:25.037Z,1.05
2022-09-13T10:27:57.817Z,0.80
2022-09-13T10:30:39.894Z,0.60
2022-09-13T10:33:23.210Z,1.02
2022-09-13T10:35:56.290Z,0.68
2022-09-13T10:38:34.900Z,3.17
2022-09-13T10:41:07.108Z,0.77
2022-09-13T10:43:36.371Z,1.92
2022-09-13T10:46:07.424Z,4.35
2022-09-13T10:48:58.930Z,211.55
2022-09-13T10:51:29.685Z,131.30
2022-09-13T10:54:15.920Z,30.63
2022-09-13T10:56:47.124Z,45.05
2022-09-13T10:59:24.196Z,68.00
2022-09-13T11:02:16.655Z,9.05
2022-09-13T11:05:23.295Z,1.98
2022-09-13T11:08:19.852Z,2.55
2022-09-13T11:11:23.079Z,17.63
2022-09-13T11:13:56.830Z,2.83
2022-09-13T11:17:06.249Z,2.25
2022-09-13T11:19:43.153Z,1.25
2022-09-13T11:22:28.200Z,0.93
2022-09-13T11:25:06.482Z,1.33
2022-09-13T11:27:48.889Z,5.53
2022-09-13T11:30:30.174Z,4.47
2022-09-13T11:33:34.679Z,33.20
2022-09-13T11:36:16.328Z,47.45
2022-09-13T11:39:29.177Z,32.63
2022-09-13T11:42:08.820Z,66.18
2022-09-13T11:45:03.895Z,8.95
2022-09-13T11:47:53.075Z,3.72
2022-09-13T11:50:27.624Z,3.90
2022-09-13T11:53:04.554Z,2.42
2022-09-13T11:55:42.461Z,3.53
2022-09-13T11:58:20.508Z,2.70
2022-09-13T12:00:57.378Z,0.82
2022-09-13T12:03:59.050Z,4.43
2022-09-13T12:06:41.955Z,2.33
2022-09-13T12:09:30.311Z,1.92
2022-09-13T12:12:13.064Z,6.25
2022-09-13T12:15:08.501Z,5.55
2022-09-13T12:17:51.865Z,4.60
2022-09-13T12:20:42.668Z,2.80
2022-09-13T12:23:48.834Z,4.63
2022-09-13T12:26:21.450Z,3.38
2022-09-13T12:28:59.104Z,9.25
2022-09-13T12:31:30.212Z,4.47
2022-09-13T12:33:59.057Z,9.57
2022-09-13T12:36:39.654Z,6.90
2022-09-13T12:39:28.658Z,17.35
2022-09-13T12:42:31.061Z,10.10
2022-09-13T12:45:21.687Z,10.55
2022-09-13T12:47:50.461Z,20.65
2022-09-13T12:50:43.342Z,9.27
2022-09-13T12:53:44.472Z,19.38
2022-09-13T12:59:26.438Z,28.42
2022-09-13T13:01:55.339Z,19.67
2022-09-13T13:04:28.188Z,22.90
2022-09-13T13:07:09.848Z,29.83
2022-09-13T13:09:51.552Z,33.47
2022-09-13T13:12:37.228Z,34.72
2022-09-13T13:15:29.147Z,31.80
2022-09-13T13:17:57.887Z,31.05
2022-09-13T13:21:06.605Z,29.85
2022-09-13T13:23:40.453Z,16.42
2022-09-13T13:27:00.557Z,18.30
2022-09-13T13:29:33.775Z,16.20
2022-09-13T13:32:03.496Z,16.75
2022-09-13T13:34:45.598Z,18.60
2022-09-13T13:37:16.384Z,23.98
2022-09-13T13:39:50.366Z,12.32
2022-09-13T13:42:33.817Z,14.35
2022-09-13T13:45:01.682Z,20.92
2022-09-13T13:47:33.504Z,53.97
2022-09-13T13:50:04.425Z,78.50
2022-09-13T13:52:41.338Z,18.77
2022-09-13T13:56:10.144Z,22.00
2022-09-13T13:58:51.654Z,43.35
2022-09-13T14:01:27.581Z,81.97
2022-09-13T14:04:12.218Z,63.70
2022-09-13T14:06:51.298Z,56.72
2022-09-13T14:09:47.838Z,36.55
2022-09-13T14:12:30.339Z,21.98
2022-09-13T14:15:08.265Z,20.92
2022-09-13T14:18:21.552Z,24.00
2022-09-13T14:21:05.279Z,27.15
2022-09-13T14:23:35.311Z,24.25
2022-09-13T14:26:05.813Z,23.48
2022-09-13T14:28:33.958Z,29.25
2022-09-13T14:31:03.013Z,25.73
2022-09-13T14:33:35.499Z,24.77
2022-09-13T14:36:20.548Z,55.45
2022-09-13T14:38:55.257Z,57.72
2022-09-13T14:41:32.312Z,58.10
2022-09-13T14:44:28.141Z,57.08
2022-09-13T14:47:08.694Z,57.45
2022-09-13T14:49:45.275Z,63.60
2022-09-13T14:52:29.686Z,66.00
2022-09-13T14:55:10.459Z,72.25
2022-09-13T14:57:44.980Z,67.53
2022-09-13T15:00:22.959Z,70.25
2022-09-13T15:02:57.455Z,55.25
2022-09-13T15:05:32.508Z,41.00
2022-09-13T15:08:00.593Z,28.00
2022-09-13T15:10:34.175Z,26.70
2022-09-13T15:13:09.475Z,31.73
2022-09-13T15:15:42.899Z,32.70
2022-09-13T15:18:24.417Z,29.02
2022-09-13T15:21:03.246Z,29.52
2022-09-13T15:23:35.990Z,27.60
2022-09-13T15:26:11.280Z,27.05
2022-09-13T15:28:42.425Z,26.20
2022-09-13T15:31:12.113Z,27.80
2022-09-13T15:33:40.117Z,38.42
2022-09-13T15:36:32.073Z,46.88
2022-09-13T15:39:18.037Z,84.20
2022-09-13T15:41:57.211Z,82.75
2022-09-13T15:44:26.276Z,58.90
2022-09-13T15:47:07.169Z,72.93
2022-09-13T15:49:35.165Z,53.97
2022-09-13T15:52:05.814Z,49.67
2022-09-13T15:54:42.418Z,40.80
2022-09-13T15:57:18.808Z,41.65
2022-09-13T15:59:46.850Z,43.50
2022-09-13T16:02:41.746Z,42.50
2022-09-13T16:05:09.837Z,51.25
2022-09-13T16:07:38.298Z,45.85
2022-09-13T16:10:14.699Z,44.08
2022-09-13T16:12:42.889Z,48.00
2022-09-13T16:15:13.343Z,48.90
2022-09-13T16:17:42.594Z,49.22
2022-09-13T16:20:16.083Z,48.42
2022-09-13T16:22:44.186Z,57.67
2022-09-13T16:25:17.105Z,64.32
2022-09-13T16:27:45.454Z,66.28
2022-09-13T16:30:20.562Z,100.95
2022-09-13T16:32:51.092Z,96.00
2022-09-13T16:35:19.441Z,61.92
2022-09-13T16:37:52.170Z,52.00
2022-09-13T16:40:21.221Z,47.17
2022-09-13T16:42:49.345Z,38.72
2022-09-13T16:45:17.608Z,39.17
2022-09-13T16:47:45.738Z,50.45
2022-09-13T16:50:14.547Z,50.95
2022-09-13T16:52:42.771Z,44.20
2022-09-13T16:55:13.645Z,42.75
2022-09-13T16:57:42.444Z,58.72
2022-09-13T17:00:16.388Z,43.67
2022-09-13T17:02:44.450Z,39.83
2022-09-13T17:05:13.366Z,43.33
2022-09-13T17:07:41.325Z,72.20
2022-09-13T17:10:10.417Z,62.70
2022-09-13T17:15:07.846Z,78.25
2022-09-13T17:17:37.324Z,57.78
2022-09-13T17:20:13.808Z,46.95
2022-09-13T17:22:42.013Z,31.38
2022-09-13T17:25:11.123Z,26.80
2022-09-13T17:27:39.123Z,31.35
2022-09-13T17:30:09.626Z,31.95
2022-09-13T17:32:37.618Z,32.35
2022-09-13T17:35:06.969Z,27.98
2022-09-13T17:37:35.045Z,32.75
2022-09-13T17:40:05.142Z,24.33
2022-09-13T17:42:33.120Z,27.88
2022-09-13T17:45:01.038Z,28.33
2022-09-13T17:47:29.072Z,28.02
2022-09-13T17:49:57.139Z,26.33
2022-09-13T17:52:25.178Z,26.08
2022-09-13T17:54:53.117Z,25.08
2022-09-13T17:57:21.388Z,27.17
2022-09-13T17:59:51.831Z,36.95
2022-09-13T18:02:19.833Z,41.67
2022-09-13T18:04:48.239Z,26.25
2022-09-13T18:07:16.255Z,28.27
2022-09-13T18:09:45.140Z,19.00
2022-09-13T18:12:13.384Z,19.33
2022-09-13T18:14:41.401Z,19.83
2022-09-13T18:17:13.679Z,19.20
2022-09-13T18:19:46.738Z,16.70
2022-09-13T18:22:15.819Z,18.52
2022-09-13T18:24:45.493Z,18.90
2022-09-13T18:27:15.893Z,21.40
2022-09-13T18:29:58.838Z,19.88
2022-09-13T18:32:27.683Z,22.13
2022-09-13T18:34:55.643Z,27.50
2022-09-13T18:37:23.606Z,25.45
2022-09-13T18:39:51.825Z,26.17
2022-09-13T18:42:19.809Z,22.92
2022-09-13T18:44:47.814Z,22.70
2022-09-13T18:47:16.911Z,23.52
2022-09-13T18:49:44.892Z,28.67
2022-09-13T18:52:12.951Z,26.83
2022-09-13T18:54:41.987Z,24.85
2022-09-13T18:57:10.017Z,16.65
2022-09-13T18:59:37.966Z,23.08
2022-09-13T19:02:07.132Z,26.95
2022-09-13T19:04:37.614Z,22.65
2022-09-13T19:07:07.646Z,22.30
2022-09-13T19:09:37.898Z,22.58
2022-09-13T19:12:06.161Z,24.05
2022-09-13T19:14:34.365Z,26.35
2022-09-13T19:17:04.500Z,24.15
2022-09-13T19:19:32.807Z,19.17
2022-09-13T19:22:00.806Z,18.40
2022-09-13T19:24:29.140Z,15.60
2022-09-13T19:26:57.300Z,16.73
2022-09-13T19:29:25.475Z,16.35
2022-09-13T19:31:59.407Z,29.38
2022-09-13T19:34:27.437Z,19.50
2022-09-13T19:36:58.504Z,23.00
2022-09-13T19:39:30.929Z,16.90
2022-09-13T19:42:01.102Z,14.70
2022-09-13T19:44:29.362Z,21.73
2022-09-13T19:47:36.298Z,22.02
2022-09-13T19:49:46.415Z,18.80
2022-09-13T19:52:14.505Z,22.33
2022-09-13T19:54:42.590Z,19.02
2022-09-13T19:57:10.606Z,16.67
2022-09-13T19:59:38.773Z,22.25
2022-09-13T20:02:07.577Z,20.75
2022-09-13T20:04:35.724Z,16.00
2022-09-13T20:07:06.669Z,18.05
2022-09-13T20:09:34.616Z,17.13
2022-09-13T20:12:02.908Z,17.98
2022-09-13T20:14:33.467Z,17.90
2022-09-13T20:17:03.078Z,19.17
2022-09-13T20:19:41.036Z,19.77
2022-09-13T20:24:38.884Z,16.83
2022-09-13T20:27:07.146Z,18.80
2022-09-13T20:29:36.642Z,20.23
2022-09-13T20:32:04.642Z,15.85
2022-09-13T20:34:32.609Z,17.50
2022-09-13T20:37:00.623Z,16.67
2022-09-13T20:39:28.516Z,17.55
2022-09-13T20:41:56.455Z,18.98
2022-09-13T20:44:24.582Z,19.42
2022-09-13T20:46:52.701Z,17.15
2022-09-13T20:49:20.778Z,17.10
2022-09-13T20:51:51.014Z,16.90
2022-09-13T20:54:19.007Z,16.38
2022-09-13T20:56:47.448Z,15.88
2022-09-13T20:59:15.525Z,16.92
2022-09-13T21:01:43.816Z,15.98
2022-09-13T21:04:11.821Z,16.77
2022-09-13T21:07:04.991Z,16.90
2022-09-13T21:09:33.114Z,15.60
2022-09-13T21:12:02.589Z,20.17
2022-09-13T21:14:33.493Z,13.60
2022-09-13T21:17:02.449Z,13.52
2022-09-13T21:19:30.385Z,13.15
2022-09-13T21:22:59.000Z,15.05
2022-09-13T21:25:27.443Z,12.32
2022-09-13T21:27:55.518Z,16.00
2022-09-13T21:30:26.144Z,15.98
2022-09-13T21:32:54.255Z,16.48
2022-09-13T21:35:22.239Z,16.58
2022-09-13T21:37:50.335Z,14.40
2022-09-13T21:40:18.313Z,16.13
2022-09-13T21:42:46.316Z,13.10
2022-09-13T21:45:14.534Z,16.48
2022-09-13T21:47:42.440Z,14.00
2022-09-13T21:50:10.701Z,13.98
2022-09-13T21:52:38.881Z,13.63
2022-09-13T21:55:07.033Z,11.43
2022-09-13T21:57:34.972Z,17.55
2022-09-13T22:00:06.058Z,14.13
2022-09-13T22:02:34.036Z,14.30
2022-09-13T22:05:02.019Z,13.65
2022-09-13T22:07:32.596Z,10.45
2022-09-13T22:10:00.520Z,10.30
2022-09-13T22:12:28.473Z,11.38
2022-09-13T22:14:56.548Z,12.25
2022-09-13T22:17:24.806Z,11.23
2022-09-13T22:19:52.836Z,12.48
2022-09-13T22:22:22.041Z,11.00
2022-09-13T22:24:50.331Z,13.20
2022-09-13T22:27:18.280Z,10.90
2022-09-13T22:29:47.410Z,10.75
2022-09-13T22:32:15.389Z,10.77
2022-09-13T22:34:43.417Z,9.45
2022-09-13T22:37:11.599Z,7.80
2022-09-13T22:39:39.533Z,9.75
2022-09-13T22:42:07.620Z,10.38
2022-09-13T22:44:38.631Z,9.45
2022-09-13T22:47:06.757Z,9.80
2022-09-13T22:49:34.690Z,9.18
2022-09-13T22:52:04.662Z,8.68
2022-09-13T22:54:32.580Z,8.45
2022-09-13T22:57:01.534Z,10.13
2022-09-13T22:59:29.689Z,7.30
2022-09-13T23:01:57.596Z,7.50
2022-09-13T23:04:25.510Z,9.63
2022-09-13T23:06:53.641Z,7.43
2022-09-13T23:09:21.611Z,9.93
2022-09-13T23:11:49.523Z,11.23
2022-09-13T23:14:22.102Z,10.73
2022-09-13T23:16:52.406Z,10.90
2022-09-13T23:19:23.818Z,10.68
2022-09-13T23:21:54.220Z,12.10
2022-09-13T23:24:23.084Z,8.90
2022-09-13T23:26:53.060Z,14.03
2022-09-13T23:29:21.347Z,13.23
2022-09-13T23:31:51.497Z,11.00
2022-09-13T23:34:22.141Z,12.35
2022-09-13T23:36:50.248Z,8.65
2022-09-13T23:39:20.692Z,9.60
2022-09-13T23:41:51.024Z,11.32
2022-09-13T23:44:19.326Z,12.02
2022-09-13T23:46:47.275Z,13.70
2022-09-13T23:49:15.422Z,9.05
2022-09-13T23:51:44.325Z,9.05
2022-09-13T23:54:14.429Z,11.00
2022-09-13T23:56:43.472Z,9.18
2022-09-13T23:59:14.031Z,8.02
